createdAt,value
2019-03-27T00:02:42.740Z,6.90
2019-03-27T00:07:41.314Z,7.50
2019-03-27T00:15:13.706Z,6.80
2019-03-27T00:20:12.234Z,7.00
2019-03-27T00:22:41.598Z,6.80
2019-03-27T00:25:11.759Z,7.70
2019-03-27T00:27:41.398Z,6.70
2019-03-27T00:40:09.338Z,6.90
2019-03-27T00:50:09.096Z,6.90
2019-03-27T00:52:38.421Z,7.00
2019-03-27T01:07:39.923Z,6.90
2019-03-27T01:12:38.459Z,6.80
2019-03-27T01:25:06.616Z,6.60
2019-03-27T01:30:06.798Z,6.80
2019-03-27T01:35:05.827Z,7.00
2019-03-27T01:37:35.189Z,6.90
2019-03-27T01:40:04.888Z,6.60
2019-03-27T01:47:33.009Z,7.00
2019-03-27T01:52:31.576Z,7.10
2019-03-27T01:59:59.172Z,6.90
2019-03-27T02:04:57.891Z,7.00
2019-03-27T02:07:27.299Z,6.80
2019-03-27T02:12:26.136Z,6.70
2019-03-27T02:19:53.769Z,7.00
2019-03-27T02:34:50.432Z,6.80
2019-03-27T02:39:48.835Z,7.30
2019-03-27T02:42:18.172Z,6.60
2019-03-27T02:57:13.099Z,6.90
2019-03-27T03:04:41.048Z,6.60
2019-03-27T03:07:10.394Z,6.60
2019-03-27T03:17:07.100Z,6.60
2019-03-27T03:24:35.102Z,6.50
2019-03-27T03:29:33.822Z,6.70
2019-03-27T03:32:03.312Z,6.60
2019-03-27T03:37:01.826Z,6.80
2019-03-27T03:39:31.180Z,6.80
2019-03-27T03:49:29.572Z,6.80
2019-03-27T03:59:29.319Z,6.80
2019-03-27T04:07:01.032Z,6.60
2019-03-27T04:31:52.638Z,6.60
2019-03-27T04:36:51.095Z,6.40
2019-03-27T04:41:49.846Z,6.50
2019-03-27T04:44:19.177Z,6.60
2019-03-27T05:01:45.468Z,6.50
2019-03-27T05:24:08.326Z,6.70
2019-03-27T05:26:37.755Z,6.60
2019-03-27T05:31:36.547Z,6.60
2019-03-27T05:39:05.077Z,6.90
2019-03-27T05:46:33.294Z,7.10
2019-03-27T05:51:32.616Z,6.90
2019-03-27T06:01:31.147Z,6.90
2019-03-27T06:04:01.164Z,6.90
2019-03-27T06:11:29.074Z,6.90
2019-03-27T06:13:58.584Z,6.80
2019-03-27T06:18:57.601Z,7.10
2019-03-27T06:21:27.111Z,7.00
2019-03-27T06:28:55.211Z,7.10
2019-03-27T06:36:23.235Z,7.30
2019-03-27T06:51:19.636Z,7.50
2019-03-27T06:58:54.475Z,7.60
2019-03-27T07:03:54.340Z,7.50
2019-03-27T07:06:23.843Z,7.60
2019-03-27T07:13:52.570Z,7.60
2019-03-27T07:21:20.574Z,7.80
2019-03-27T07:28:48.893Z,7.90
2019-03-27T07:31:18.394Z,7.70
2019-03-27T07:36:17.315Z,7.90
2019-03-27T07:38:46.752Z,7.70
2019-03-27T07:46:15.232Z,7.80
2019-03-27T07:48:53.864Z,7.60
2019-03-27T07:51:15.985Z,7.80
2019-03-27T07:53:45.792Z,7.80
2019-03-27T08:01:14.214Z,7.70
2019-03-27T08:03:43.835Z,7.90
2019-03-27T08:06:13.233Z,7.90
2019-03-27T08:08:50.721Z,8.00
2019-03-27T08:11:20.974Z,7.90
2019-03-27T08:13:50.969Z,7.90
2019-03-27T08:16:20.392Z,7.90
2019-03-27T08:18:49.876Z,8.20
2019-03-27T08:23:49.214Z,7.90
2019-03-27T08:28:48.102Z,8.10
2019-03-27T08:33:46.906Z,8.30
2019-03-27T08:41:14.709Z,8.40
2019-03-27T08:48:45.000Z,8.50
2019-03-27T08:51:15.830Z,8.80
2019-03-27T08:56:14.617Z,9.00
2019-03-27T09:06:16.175Z,9.20
2019-03-27T09:11:18.579Z,9.20
2019-03-27T09:16:21.479Z,9.20
2019-03-27T09:18:51.441Z,9.50
2019-03-27T09:21:20.947Z,9.30
2019-03-27T09:26:19.651Z,9.40
2019-03-27T09:28:50.354Z,9.50
2019-03-27T09:31:19.889Z,9.80
2019-03-27T09:33:49.397Z,9.70
2019-03-27T09:38:48.712Z,9.80
2019-03-27T09:41:21.469Z,9.90
2019-03-27T09:43:51.418Z,10.00
2019-03-27T10:04:02.329Z,10.70
2019-03-27T10:06:31.825Z,10.60
2019-03-27T10:11:32.093Z,10.70
2019-03-27T10:16:31.279Z,10.70
2019-03-27T10:19:01.404Z,10.50
2019-03-27T10:24:00.320Z,10.70
2019-03-27T10:31:28.823Z,11.40
2019-03-27T10:33:58.344Z,11.20
2019-03-27T10:38:57.249Z,11.20
2019-03-27T10:41:26.857Z,10.80
2019-03-27T10:46:26.998Z,11.20
2019-03-27T10:51:25.702Z,11.50
2019-03-27T10:53:55.206Z,11.60
2019-03-27T11:03:53.231Z,11.60
2019-03-27T11:08:52.468Z,11.60
2019-03-27T11:11:25.770Z,11.50
2019-03-27T11:13:55.256Z,11.60
2019-03-27T11:21:23.564Z,11.70
2019-03-27T11:28:51.567Z,11.30
2019-03-27T11:31:21.436Z,11.50
2019-03-27T11:33:51.000Z,11.30
2019-03-27T11:38:49.804Z,11.30
2019-03-27T11:43:54.605Z,11.30
2019-03-27T11:48:49.262Z,11.10
2019-03-27T11:51:18.771Z,11.50
2019-03-27T11:56:17.488Z,11.70
2019-03-27T11:58:47.149Z,11.80
2019-03-27T12:01:16.795Z,11.70
2019-03-27T12:06:16.735Z,11.70
2019-03-27T12:11:15.450Z,11.50
2019-03-27T12:13:44.966Z,11.40
2019-03-27T12:18:43.846Z,11.60
2019-03-27T12:23:42.864Z,11.80
2019-03-27T12:28:41.889Z,11.00
2019-03-27T12:31:12.297Z,11.20
2019-03-27T12:33:41.814Z,11.10
2019-03-27T12:41:16.024Z,11.60
2019-03-27T12:43:45.461Z,11.40
2019-03-27T12:48:44.580Z,11.40
2019-03-27T12:51:14.097Z,11.30
2019-03-27T12:53:43.701Z,11.40
2019-03-27T12:58:42.504Z,11.60
2019-03-27T13:01:12.013Z,11.60
2019-03-27T13:08:41.852Z,11.80
2019-03-27T13:13:40.666Z,12.10
2019-03-27T13:16:13.911Z,12.10
2019-03-27T13:28:48.808Z,12.00
2019-03-27T13:31:14.373Z,12.10
2019-03-27T13:36:16.026Z,12.10
2019-03-27T13:38:45.599Z,11.90
2019-03-27T13:41:15.470Z,11.70
2019-03-27T13:43:45.002Z,11.70
2019-03-27T13:48:44.093Z,11.40
2019-03-27T13:51:13.570Z,11.40
2019-03-27T13:58:41.712Z,11.50
2019-03-27T14:01:13.039Z,11.70
2019-03-27T14:06:15.060Z,11.80
2019-03-27T14:13:43.647Z,12.00
2019-03-27T14:16:13.285Z,12.10
2019-03-27T14:21:16.662Z,11.80
2019-03-27T14:23:46.307Z,11.70
2019-03-27T14:31:14.631Z,11.60
2019-03-27T14:38:48.859Z,11.30
2019-03-27T14:46:24.771Z,11.40
2019-03-27T14:56:22.171Z,11.60
2019-03-27T15:01:20.984Z,11.60
2019-03-27T15:03:50.526Z,11.80
2019-03-27T15:08:49.494Z,11.50
2019-03-27T15:11:19.000Z,11.80
2019-03-27T15:16:18.010Z,11.60
2019-03-27T15:18:47.619Z,11.70
2019-03-27T15:21:17.552Z,11.50
2019-03-27T15:23:51.138Z,11.50
2019-03-27T15:28:50.974Z,11.40
2019-03-27T15:38:50.333Z,11.10
2019-03-27T15:41:19.830Z,10.90
2019-03-27T15:43:49.644Z,10.50
2019-03-27T15:51:17.962Z,10.80
2019-03-27T15:53:47.874Z,11.60
2019-03-27T15:58:46.893Z,11.20
2019-03-27T16:03:45.793Z,11.20
2019-03-27T16:13:43.007Z,11.10
2019-03-27T16:19:01.287Z,11.10
2019-03-27T16:21:30.775Z,11.00
2019-03-27T16:24:06.310Z,10.80
2019-03-27T16:29:00.830Z,11.60
2019-03-27T16:31:30.352Z,10.90
2019-03-27T16:36:29.146Z,10.90
2019-03-27T16:38:58.569Z,10.90
2019-03-27T16:46:27.027Z,10.90
2019-03-27T16:48:57.400Z,10.90
2019-03-27T16:51:26.902Z,10.80
2019-03-27T16:58:57.157Z,10.90
2019-03-27T17:11:23.881Z,10.70
2019-03-27T17:13:53.379Z,10.70
2019-03-27T17:18:52.600Z,11.30
2019-03-27T17:26:20.908Z,10.50
2019-03-27T17:31:19.826Z,10.70
2019-03-27T17:38:48.032Z,10.30
2019-03-27T17:43:46.843Z,10.10
2019-03-27T17:51:14.744Z,9.90
2019-03-27T17:58:42.965Z,10.00
2019-03-27T18:01:12.465Z,9.80
2019-03-27T18:06:11.475Z,9.90
2019-03-27T18:08:41.100Z,10.10
2019-03-27T18:11:10.590Z,10.20
2019-03-27T18:21:07.904Z,10.20
2019-03-27T18:23:45.715Z,10.00
2019-03-27T18:26:08.963Z,10.10
2019-03-27T18:33:37.074Z,10.20
2019-03-27T18:38:41.607Z,9.90
2019-03-27T18:43:40.539Z,10.20
2019-03-27T18:46:10.186Z,10.10
2019-03-27T18:48:40.003Z,10.20
2019-03-27T18:51:09.468Z,10.20
2019-03-27T18:56:08.550Z,10.00
2019-03-27T18:58:38.101Z,10.10
2019-03-27T19:01:07.585Z,10.20
2019-03-27T19:03:37.079Z,9.60
2019-03-27T19:06:06.694Z,10.10
2019-03-27T19:08:36.478Z,10.10
2019-03-27T19:11:05.998Z,10.00
2019-03-27T19:16:04.825Z,9.90
2019-03-27T19:18:41.240Z,9.70
2019-03-27T19:21:10.846Z,9.80
2019-03-27T19:23:48.706Z,10.10
2019-03-27T19:28:53.804Z,9.60
2019-03-27T19:31:22.547Z,9.50
2019-03-27T19:46:21.124Z,9.40
2019-03-27T19:51:20.021Z,9.00
2019-03-27T19:53:49.750Z,8.80
2019-03-27T19:56:19.375Z,9.30
2019-03-27T20:01:18.184Z,9.10
2019-03-27T20:21:19.094Z,9.30
2019-03-27T20:26:18.851Z,9.30
2019-03-27T20:28:51.531Z,9.20
2019-03-27T20:31:21.133Z,9.00
2019-03-27T20:33:54.278Z,9.30
2019-03-27T20:36:26.505Z,9.40
2019-03-27T20:44:00.972Z,9.20
2019-03-27T20:46:30.497Z,9.20
2019-03-27T20:49:00.078Z,9.20
2019-03-27T20:54:01.247Z,9.40
2019-03-27T20:59:01.267Z,9.50
2019-03-27T21:06:30.716Z,9.20
2019-03-27T21:11:29.737Z,9.40
2019-03-27T21:13:59.672Z,9.10
2019-03-27T21:16:32.374Z,9.40
2019-03-27T21:19:01.744Z,9.30
2019-03-27T21:21:31.474Z,9.30
2019-03-27T21:26:39.514Z,9.00
2019-03-27T21:29:09.091Z,9.20
2019-03-27T21:34:11.342Z,10.20
2019-03-27T21:39:14.471Z,9.30
2019-03-27T21:54:24.214Z,9.50
2019-03-27T21:56:58.100Z,9.50
2019-03-27T21:59:27.645Z,9.30
2019-03-27T22:04:26.426Z,9.40
2019-03-27T22:06:55.934Z,9.50
2019-03-27T22:11:54.538Z,9.40
2019-03-27T22:17:00.107Z,9.20
2019-03-27T22:19:30.631Z,9.40
2019-03-27T22:24:29.545Z,9.30
2019-03-27T22:26:59.052Z,9.30
2019-03-27T22:31:58.924Z,9.30
2019-03-27T22:39:27.601Z,9.30
2019-03-27T22:41:57.010Z,9.40
2019-03-27T22:46:55.921Z,9.40
2019-03-27T22:49:25.586Z,9.30
2019-03-27T22:51:55.033Z,9.50
2019-03-27T22:56:55.068Z,9.50
2019-03-27T23:01:53.883Z,9.20
2019-03-27T23:04:23.400Z,9.10
2019-03-27T23:11:51.494Z,9.30
2019-03-27T23:19:19.396Z,9.00
2019-03-27T23:24:18.206Z,9.20
2019-03-27T23:26:47.818Z,9.00
2019-03-27T23:31:47.555Z,9.20
2019-03-27T23:34:17.175Z,9.00
2019-03-27T23:36:46.766Z,9.10
2019-03-27T23:39:16.275Z,9.30
2019-03-27T23:44:14.978Z,9.00
2019-03-27T23:51:42.784Z,9.40
2019-03-27T23:54:12.285Z,9.10
2019-03-27T23:59:10.988Z,9.20
